sensor_id;sensor_type;location;lat;lon;timestamp;temperature;humidity
2387;DHT22;49473;50.772;8.768;2023-03-01T00:00:49;-1.30;99.90
2387;DHT22;49473;50.772;8.768;2023-03-01T00:03:16;-1.30;99.90
2387;DHT22;49473;50.772;8.768;2023-03-01T00:05:44;-1.30;99.90
2387;DHT22;49473;50.772;8.768;2023-03-01T00:08:11;-1.30;99.90
2387;DHT22;49473;50.772;8.768;2023-03-01T00:10:37;-1.30;99.90
2387;DHT22;49473;50.772;8.768;2023-03-01T00:13:04;-1.30;99.90
2387;DHT22;49473;50.772;8.768;2023-03-01T00:15:31;-1.20;99.90
2387;DHT22;49473;50.772;8.768;2023-03-01T00:18:00;-1.20;99.90
2387;DHT22;49473;50.772;8.768;2023-03-01T00:20:27;-1.20;99.90
2387;DHT22;49473;50.772;8.768;2023-03-01T00:22:54;-1.20;99.90
2387;DHT22;49473;50.772;8.768;2023-03-01T00:25:21;-1.30;99.90
2387;DHT22;49473;50.772;8.768;2023-03-01T00:27:47;-1.30;99.90
2387;DHT22;49473;50.772;8.768;2023-03-01T00:30:15;-1.30;99.90
2387;DHT22;49473;50.772;8.768;2023-03-01T00:32:42;-1.40;99.90
2387;DHT22;49473;50.772;8.768;2023-03-01T00:35:10;-1.50;99.90
2387;DHT22;49473;50.772;8.768;2023-03-01T00:37:37;-1.60;99.90
2387;DHT22;49473;50.772;8.768;2023-03-01T00:40:04;-1.60;99.90
2387;DHT22;49473;50.772;8.768;2023-03-01T00:42:32;-1.60;99.90
2387;DHT22;49473;50.772;8.768;2023-03-01T00:44:59;-1.70;99.90
2387;DHT22;49473;50.772;8.768;2023-03-01T00:47:28;-1.60;99.90
2387;DHT22;49473;50.772;8.768;2023-03-01T00:49:54;-1.70;99.90
2387;DHT22;49473;50.772;8.768;2023-03-01T00:52:22;-1.80;99.90
2387;DHT22;49473;50.772;8.768;2023-03-01T00:54:52;-1.90;99.90
2387;DHT22;49473;50.772;8.768;2023-03-01T00:57:19;-2.00;99.90
2387;DHT22;49473;50.772;8.768;2023-03-01T00:59:45;-2.00;99.90
2387;DHT22;49473;50.772;8.768;2023-03-01T01:02:12;-1.90;99.90
2387;DHT22;49473;50.772;8.768;2023-03-01T01:04:39;-1.80;99.90
2387;DHT22;49473;50.772;8.768;2023-03-01T01:07:05;-1.70;99.90
2387;DHT22;49473;50.772;8.768;2023-03-01T01:09:33;-1.70;99.90
2387;DHT22;49473;50.772;8.768;2023-03-01T01:12:01;-1.60;99.90
2387;DHT22;49473;50.772;8.768;2023-03-01T01:14:27;-1.50;99.90
2387;DHT22;49473;50.772;8.768;2023-03-01T01:16:54;-1.50;99.90
2387;DHT22;49473;50.772;8.768;2023-03-01T01:19:21;-1.50;99.90
2387;DHT22;49473;50.772;8.768;2023-03-01T01:21:48;-1.40;99.90
2387;DHT22;49473;50.772;8.768;2023-03-01T01:24:15;-1.40;99.90
2387;DHT22;49473;50.772;8.768;2023-03-01T01:26:44;-1.50;99.90
2387;DHT22;49473;50.772;8.768;2023-03-01T01:29:11;-1.50;99.90
2387;DHT22;49473;50.772;8.768;2023-03-01T01:31:39;-1.50;99.90
2387;DHT22;49473;50.772;8.768;2023-03-01T01:34:08;-1.70;99.90
2387;DHT22;49473;50.772;8.768;2023-03-01T01:36:38;-1.90;99.90
2387;DHT22;49473;50.772;8.768;2023-03-01T01:39:05;-1.90;99.90
2387;DHT22;49473;50.772;8.768;2023-03-01T01:41:33;-1.90;99.90
2387;DHT22;49473;50.772;8.768;2023-03-01T01:44:16;-1.80;99.90
2387;DHT22;49473;50.772;8.768;2023-03-01T01:46:45;-1.80;99.90
2387;DHT22;49473;50.772;8.768;2023-03-01T01:49:20;-1.80;99.90
2387;DHT22;49473;50.772;8.768;2023-03-01T01:51:51;-1.70;99.90
2387;DHT22;49473;50.772;8.768;2023-03-01T01:54:20;-1.90;99.90
2387;DHT22;49473;50.772;8.768;2023-03-01T01:56:54;-1.90;99.90
2387;DHT22;49473;50.772;8.768;2023-03-01T01:59:24;-1.90;99.90
2387;DHT22;49473;50.772;8.768;2023-03-01T02:01:52;-1.90;99.90
2387;DHT22;49473;50.772;8.768;2023-03-01T02:04:19;-1.90;99.90
2387;DHT22;49473;50.772;8.768;2023-03-01T02:06:51;-1.90;99.90
2387;DHT22;49473;50.772;8.768;2023-03-01T02:09:20;-1.90;99.90
2387;DHT22;49473;50.772;8.768;2023-03-01T02:11:49;-1.80;99.90
2387;DHT22;49473;50.772;8.768;2023-03-01T02:14:16;-1.80;99.90
2387;DHT22;49473;50.772;8.768;2023-03-01T02:16:44;-1.90;99.90
2387;DHT22;49473;50.772;8.768;2023-03-01T02:19:31;-2.00;99.90
2387;DHT22;49473;50.772;8.768;2023-03-01T02:22:06;-2.00;99.90
2387;DHT22;49473;50.772;8.768;2023-03-01T02:24:39;-2.20;99.90
2387;DHT22;49473;50.772;8.768;2023-03-01T02:27:09;-2.20;99.90
2387;DHT22;49473;50.772;8.768;2023-03-01T02:29:38;-2.30;99.90
2387;DHT22;49473;50.772;8.768;2023-03-01T02:32:05;-2.40;99.90
2387;DHT22;49473;50.772;8.768;2023-03-01T02:34:32;-2.40;99.90
2387;DHT22;49473;50.772;8.768;2023-03-01T02:37:02;-2.40;99.90
2387;DHT22;49473;50.772;8.768;2023-03-01T02:39:32;-2.40;99.90
2387;DHT22;49473;50.772;8.768;2023-03-01T02:42:01;-2.40;99.90
2387;DHT22;49473;50.772;8.768;2023-03-01T02:44:29;-2.30;99.90
2387;DHT22;49473;50.772;8.768;2023-03-01T02:47:01;-2.30;99.90
2387;DHT22;49473;50.772;8.768;2023-03-01T02:49:31;-2.30;99.90
2387;DHT22;49473;50.772;8.768;2023-03-01T02:52:28;-2.20;99.90
2387;DHT22;49473;50.772;8.768;2023-03-01T02:54:59;-2.30;99.90
2387;DHT22;49473;50.772;8.768;2023-03-01T02:57:28;-2.30;99.90
2387;DHT22;49473;50.772;8.768;2023-03-01T02:59:58;-2.30;99.90
2387;DHT22;49473;50.772;8.768;2023-03-01T03:02:30;-2.20;99.90
2387;DHT22;49473;50.772;8.768;2023-03-01T03:05:05;-2.20;99.90
2387;DHT22;49473;50.772;8.768;2023-03-01T03:07:34;-2.20;99.90
2387;DHT22;49473;50.772;8.768;2023-03-01T03:10:01;-2.20;99.90
2387;DHT22;49473;50.772;8.768;2023-03-01T03:12:27;-2.40;99.90
2387;DHT22;49473;50.772;8.768;2023-03-01T03:14:54;-2.40;99.90
2387;DHT22;49473;50.772;8.768;2023-03-01T03:17:21;-2.30;99.90
2387;DHT22;49473;50.772;8.768;2023-03-01T03:19:49;-2.30;99.90
2387;DHT22;49473;50.772;8.768;2023-03-01T03:22:16;-2.30;99.90
2387;DHT22;49473;50.772;8.768;2023-03-01T03:24:42;-2.30;99.90
2387;DHT22;49473;50.772;8.768;2023-03-01T03:27:09;-2.40;99.90
2387;DHT22;49473;50.772;8.768;2023-03-01T03:29:36;-2.50;99.90
2387;DHT22;49473;50.772;8.768;2023-03-01T03:32:03;-2.50;99.90
2387;DHT22;49473;50.772;8.768;2023-03-01T03:34:30;-2.60;99.90
2387;DHT22;49473;50.772;8.768;2023-03-01T03:36:58;-2.70;99.90
2387;DHT22;49473;50.772;8.768;2023-03-01T03:39:25;-2.80;99.90
2387;DHT22;49473;50.772;8.768;2023-03-01T03:41:53;-2.90;99.90
2387;DHT22;49473;50.772;8.768;2023-03-01T03:44:19;-2.90;99.90
2387;DHT22;49473;50.772;8.768;2023-03-01T03:46:46;-2.90;99.90
2387;DHT22;49473;50.772;8.768;2023-03-01T03:49:13;-3.00;99.90
2387;DHT22;49473;50.772;8.768;2023-03-01T03:51:40;-3.00;99.90
2387;DHT22;49473;50.772;8.768;2023-03-01T03:54:08;-3.10;99.90
2387;DHT22;49473;50.772;8.768;2023-03-01T03:56:36;-3.10;99.90
2387;DHT22;49473;50.772;8.768;2023-03-01T03:59:02;-3.10;99.90
2387;DHT22;49473;50.772;8.768;2023-03-01T04:01:31;-3.00;99.90
2387;DHT22;49473;50.772;8.768;2023-03-01T04:03:58;-3.10;99.90
2387;DHT22;49473;50.772;8.768;2023-03-01T04:06:29;-3.10;99.90
2387;DHT22;49473;50.772;8.768;2023-03-01T04:08:56;-3.20;99.90
2387;DHT22;49473;50.772;8.768;2023-03-01T04:11:24;-3.30;99.90
2387;DHT22;49473;50.772;8.768;2023-03-01T04:13:55;-3.30;99.90
2387;DHT22;49473;50.772;8.768;2023-03-01T04:16:23;-3.30;99.90
2387;DHT22;49473;50.772;8.768;2023-03-01T04:18:50;-3.30;99.90
2387;DHT22;49473;50.772;8.768;2023-03-01T04:21:19;-3.30;99.90
2387;DHT22;49473;50.772;8.768;2023-03-01T04:23:45;-3.40;99.90
2387;DHT22;49473;50.772;8.768;2023-03-01T04:26:12;-3.50;99.90
2387;DHT22;49473;50.772;8.768;2023-03-01T04:28:41;-3.60;99.90
2387;DHT22;49473;50.772;8.768;2023-03-01T04:31:12;-3.70;99.90
2387;DHT22;49473;50.772;8.768;2023-03-01T04:33:44;-3.70;99.90
2387;DHT22;49473;50.772;8.768;2023-03-01T04:36:12;-3.80;99.90
2387;DHT22;49473;50.772;8.768;2023-03-01T04:38:39;-3.80;99.90
2387;DHT22;49473;50.772;8.768;2023-03-01T04:41:08;-3.90;99.90
2387;DHT22;49473;50.772;8.768;2023-03-01T04:43:35;-3.90;99.90
2387;DHT22;49473;50.772;8.768;2023-03-01T04:46:04;-4.00;99.90
2387;DHT22;49473;50.772;8.768;2023-03-01T04:48:35;-4.00;99.90
2387;DHT22;49473;50.772;8.768;2023-03-01T04:51:02;-4.00;99.90
2387;DHT22;49473;50.772;8.768;2023-03-01T04:53:29;-4.00;99.90
2387;DHT22;49473;50.772;8.768;2023-03-01T04:55:56;-4.00;99.90
2387;DHT22;49473;50.772;8.768;2023-03-01T04:58:23;-4.00;99.90
2387;DHT22;49473;50.772;8.768;2023-03-01T05:00:51;-4.00;99.90
2387;DHT22;49473;50.772;8.768;2023-03-01T05:03:19;-3.90;99.90
2387;DHT22;49473;50.772;8.768;2023-03-01T05:05:49;-3.90;99.90
2387;DHT22;49473;50.772;8.768;2023-03-01T05:08:16;-3.80;99.90
2387;DHT22;49473;50.772;8.768;2023-03-01T05:10:45;-3.70;99.90
2387;DHT22;49473;50.772;8.768;2023-03-01T05:13:13;-3.70;99.90
2387;DHT22;49473;50.772;8.768;2023-03-01T05:15:46;-3.70;99.90
2387;DHT22;49473;50.772;8.768;2023-03-01T05:18:15;-3.60;99.90
2387;DHT22;49473;50.772;8.768;2023-03-01T05:20:43;-3.50;99.90
2387;DHT22;49473;50.772;8.768;2023-03-01T05:23:11;-3.40;99.90
2387;DHT22;49473;50.772;8.768;2023-03-01T05:25:37;-3.40;99.90
2387;DHT22;49473;50.772;8.768;2023-03-01T05:28:06;-3.50;99.90
2387;DHT22;49473;50.772;8.768;2023-03-01T05:30:34;-3.40;99.90
2387;DHT22;49473;50.772;8.768;2023-03-01T05:33:00;-3.40;99.90
2387;DHT22;49473;50.772;8.768;2023-03-01T05:35:28;-3.50;99.90
2387;DHT22;49473;50.772;8.768;2023-03-01T05:37:59;-3.60;99.90
2387;DHT22;49473;50.772;8.768;2023-03-01T05:40:25;-3.60;99.90
2387;DHT22;49473;50.772;8.768;2023-03-01T05:42:55;-3.70;99.90
2387;DHT22;49473;50.772;8.768;2023-03-01T05:45:24;-3.70;99.90
2387;DHT22;49473;50.772;8.768;2023-03-01T05:47:51;-3.60;99.90
2387;DHT22;49473;50.772;8.768;2023-03-01T05:50:20;-3.50;99.90
2387;DHT22;49473;50.772;8.768;2023-03-01T05:52:48;-3.40;99.90
2387;DHT22;49473;50.772;8.768;2023-03-01T05:55:17;-3.40;99.90
2387;DHT22;49473;50.772;8.768;2023-03-01T05:57:44;-3.50;99.90
2387;DHT22;49473;50.772;8.768;2023-03-01T06:00:13;-3.50;99.90
2387;DHT22;49473;50.772;8.768;2023-03-01T06:02:40;-3.50;99.90
2387;DHT22;49473;50.772;8.768;2023-03-01T06:05:08;-3.40;99.90
2387;DHT22;49473;50.772;8.768;2023-03-01T06:07:35;-3.30;99.90
2387;DHT22;49473;50.772;8.768;2023-03-01T06:10:02;-3.30;99.90
2387;DHT22;49473;50.772;8.768;2023-03-01T06:12:31;-3.20;99.90
2387;DHT22;49473;50.772;8.768;2023-03-01T06:14:58;-3.10;99.90
2387;DHT22;49473;50.772;8.768;2023-03-01T06:17:25;-3.10;99.90
2387;DHT22;49473;50.772;8.768;2023-03-01T06:19:52;-3.10;99.90
2387;DHT22;49473;50.772;8.768;2023-03-01T06:22:18;-3.00;99.90
2387;DHT22;49473;50.772;8.768;2023-03-01T06:24:45;-2.90;99.90
2387;DHT22;49473;50.772;8.768;2023-03-01T06:27:12;-2.80;99.90
2387;DHT22;49473;50.772;8.768;2023-03-01T06:29:40;-2.70;99.90
2387;DHT22;49473;50.772;8.768;2023-03-01T06:32:07;-2.60;99.90
2387;DHT22;49473;50.772;8.768;2023-03-01T06:34:34;-2.60;99.90
2387;DHT22;49473;50.772;8.768;2023-03-01T06:37:01;-2.50;99.90
2387;DHT22;49473;50.772;8.768;2023-03-01T06:39:30;-2.50;99.90
2387;DHT22;49473;50.772;8.768;2023-03-01T06:41:57;-2.40;99.90
2387;DHT22;49473;50.772;8.768;2023-03-01T06:44:24;-2.40;99.90
2387;DHT22;49473;50.772;8.768;2023-03-01T06:46:52;-2.40;99.90
2387;DHT22;49473;50.772;8.768;2023-03-01T06:49:19;-2.30;99.90
2387;DHT22;49473;50.772;8.768;2023-03-01T06:51:46;-2.20;99.90
2387;DHT22;49473;50.772;8.768;2023-03-01T06:54:13;-2.10;99.90
2387;DHT22;49473;50.772;8.768;2023-03-01T06:56:40;-2.00;99.90
2387;DHT22;49473;50.772;8.768;2023-03-01T06:59:06;-1.90;99.90
2387;DHT22;49473;50.772;8.768;2023-03-01T07:01:33;-1.70;99.90
2387;DHT22;49473;50.772;8.768;2023-03-01T07:04:01;-1.60;99.90
2387;DHT22;49473;50.772;8.768;2023-03-01T07:06:28;-1.60;99.90
2387;DHT22;49473;50.772;8.768;2023-03-01T07:08:54;-1.60;99.90
2387;DHT22;49473;50.772;8.768;2023-03-01T07:11:21;-1.50;99.90
2387;DHT22;49473;50.772;8.768;2023-03-01T07:13:48;-1.60;99.90
2387;DHT22;49473;50.772;8.768;2023-03-01T07:16:15;-1.60;99.90
2387;DHT22;49473;50.772;8.768;2023-03-01T07:18:42;-1.60;99.90
2387;DHT22;49473;50.772;8.768;2023-03-01T07:21:12;-1.40;99.90
2387;DHT22;49473;50.772;8.768;2023-03-01T07:23:39;-0.80;99.90
2387;DHT22;49473;50.772;8.768;2023-03-01T07:26:06;0.10;99.90
2387;DHT22;49473;50.772;8.768;2023-03-01T07:28:33;1.00;99.90
2387;DHT22;49473;50.772;8.768;2023-03-01T07:31:02;1.30;99.90
2387;DHT22;49473;50.772;8.768;2023-03-01T07:33:29;1.60;99.90
2387;DHT22;49473;50.772;8.768;2023-03-01T07:35:56;2.20;99.90
2387;DHT22;49473;50.772;8.768;2023-03-01T07:38:25;2.60;99.90
2387;DHT22;49473;50.772;8.768;2023-03-01T07:40:52;2.40;99.90
2387;DHT22;49473;50.772;8.768;2023-03-01T07:43:19;2.20;99.90
2387;DHT22;49473;50.772;8.768;2023-03-01T07:45:46;1.80;99.90
2387;DHT22;49473;50.772;8.768;2023-03-01T07:48:13;1.90;99.90
2387;DHT22;49473;50.772;8.768;2023-03-01T07:50:41;1.70;99.90
2387;DHT22;49473;50.772;8.768;2023-03-01T07:53:08;1.40;99.90
2387;DHT22;49473;50.772;8.768;2023-03-01T07:55:36;1.30;99.90
2387;DHT22;49473;50.772;8.768;2023-03-01T07:58:03;1.30;99.90
2387;DHT22;49473;50.772;8.768;2023-03-01T08:00:30;1.40;99.90
2387;DHT22;49473;50.772;8.768;2023-03-01T08:02:58;1.40;99.90
2387;DHT22;49473;50.772;8.768;2023-03-01T08:05:25;1.50;99.90
2387;DHT22;49473;50.772;8.768;2023-03-01T08:07:52;1.80;99.90
2387;DHT22;49473;50.772;8.768;2023-03-01T08:10:20;2.30;99.90
2387;DHT22;49473;50.772;8.768;2023-03-01T08:12:48;2.80;99.90
2387;DHT22;49473;50.772;8.768;2023-03-01T08:15:17;2.30;99.90
2387;DHT22;49473;50.772;8.768;2023-03-01T08:17:44;2.30;99.90
2387;DHT22;49473;50.772;8.768;2023-03-01T08:20:11;2.40;99.90
2387;DHT22;49473;50.772;8.768;2023-03-01T08:22:38;2.60;99.90
2387;DHT22;49473;50.772;8.768;2023-03-01T08:25:05;2.80;99.90
2387;DHT22;49473;50.772;8.768;2023-03-01T08:27:32;3.00;99.90
2387;DHT22;49473;50.772;8.768;2023-03-01T08:30:00;3.20;99.90
2387;DHT22;49473;50.772;8.768;2023-03-01T08:32:26;3.20;99.90
2387;DHT22;49473;50.772;8.768;2023-03-01T08:34:53;2.90;99.90
2387;DHT22;49473;50.772;8.768;2023-03-01T08:37:20;2.90;99.90
2387;DHT22;49473;50.772;8.768;2023-03-01T08:39:46;3.30;99.90
2387;DHT22;49473;50.772;8.768;2023-03-01T08:42:13;3.30;99.90
2387;DHT22;49473;50.772;8.768;2023-03-01T08:44:40;3.10;99.90
2387;DHT22;49473;50.772;8.768;2023-03-01T08:47:08;3.00;99.90
2387;DHT22;49473;50.772;8.768;2023-03-01T08:49:34;3.20;99.90
2387;DHT22;49473;50.772;8.768;2023-03-01T08:52:02;3.60;99.90
2387;DHT22;49473;50.772;8.768;2023-03-01T08:54:28;3.60;99.90
2387;DHT22;49473;50.772;8.768;2023-03-01T08:56:55;3.40;99.90
2387;DHT22;49473;50.772;8.768;2023-03-01T08:59:25;3.50;99.90
2387;DHT22;49473;50.772;8.768;2023-03-01T09:01:52;3.90;99.90
2387;DHT22;49473;50.772;8.768;2023-03-01T09:04:22;3.50;99.90
2387;DHT22;49473;50.772;8.768;2023-03-01T09:06:48;3.70;99.90
2387;DHT22;49473;50.772;8.768;2023-03-01T09:09:17;4.50;99.90
2387;DHT22;49473;50.772;8.768;2023-03-01T09:11:44;4.70;99.90
2387;DHT22;49473;50.772;8.768;2023-03-01T09:14:12;4.60;99.90
2387;DHT22;49473;50.772;8.768;2023-03-01T09:16:38;4.80;99.90
2387;DHT22;49473;50.772;8.768;2023-03-01T09:19:05;5.30;99.90
2387;DHT22;49473;50.772;8.768;2023-03-01T09:21:33;6.10;99.90
2387;DHT22;49473;50.772;8.768;2023-03-01T09:24:00;6.60;99.90
2387;DHT22;49473;50.772;8.768;2023-03-01T09:26:27;7.10;99.90
2387;DHT22;49473;50.772;8.768;2023-03-01T09:28:55;6.90;99.90
2387;DHT22;49473;50.772;8.768;2023-03-01T09:31:23;6.50;99.90
2387;DHT22;49473;50.772;8.768;2023-03-01T09:33:52;7.00;99.90
2387;DHT22;49473;50.772;8.768;2023-03-01T09:36:21;6.70;99.90
2387;DHT22;49473;50.772;8.768;2023-03-01T09:38:49;7.20;99.90
2387;DHT22;49473;50.772;8.768;2023-03-01T09:41:38;8.10;99.60
2387;DHT22;49473;50.772;8.768;2023-03-01T09:44:15;8.80;97.40
2387;DHT22;49473;50.772;8.768;2023-03-01T09:46:46;8.50;95.80
2387;DHT22;49473;50.772;8.768;2023-03-01T09:49:16;9.50;97.10
2387;DHT22;49473;50.772;8.768;2023-03-01T09:51:53;10.10;92.70
2387;DHT22;49473;50.772;8.768;2023-03-01T09:54:22;10.00;91.60
2387;DHT22;49473;50.772;8.768;2023-03-01T09:57:01;9.50;92.40
2387;DHT22;49473;50.772;8.768;2023-03-01T09:59:36;10.80;91.60
2387;DHT22;49473;50.772;8.768;2023-03-01T10:02:21;10.60;88.10
2387;DHT22;49473;50.772;8.768;2023-03-01T10:04:50;10.10;86.80
2387;DHT22;49473;50.772;8.768;2023-03-01T10:07:27;10.10;86.90
2387;DHT22;49473;50.772;8.768;2023-03-01T10:09:55;10.90;86.90
2387;DHT22;49473;50.772;8.768;2023-03-01T10:12:27;10.60;84.60
2387;DHT22;49473;50.772;8.768;2023-03-01T10:15:01;10.90;84.70
2387;DHT22;49473;50.772;8.768;2023-03-01T10:17:34;10.80;82.20
2387;DHT22;49473;50.772;8.768;2023-03-01T10:20:19;10.60;82.00
2387;DHT22;49473;50.772;8.768;2023-03-01T10:22:46;11.20;81.50
2387;DHT22;49473;50.772;8.768;2023-03-01T10:25:24;10.90;81.00
2387;DHT22;49473;50.772;8.768;2023-03-01T10:27:54;11.40;79.70
2387;DHT22;49473;50.772;8.768;2023-03-01T10:30:28;12.50;79.10
2387;DHT22;49473;50.772;8.768;2023-03-01T10:32:57;12.20;75.70
2387;DHT22;49473;50.772;8.768;2023-03-01T10:35:26;12.00;77.60
2387;DHT22;49473;50.772;8.768;2023-03-01T10:37:58;12.10;74.50
2387;DHT22;49473;50.772;8.768;2023-03-01T10:40:26;11.30;74.60
2387;DHT22;49473;50.772;8.768;2023-03-01T10:42:53;12.20;77.10
2387;DHT22;49473;50.772;8.768;2023-03-01T10:45:31;13.50;74.60
2387;DHT22;49473;50.772;8.768;2023-03-01T10:48:12;14.90;72.30
2387;DHT22;49473;50.772;8.768;2023-03-01T10:50:40;16.20;68.90
2387;DHT22;49473;50.772;8.768;2023-03-01T10:53:21;17.60;64.00
2387;DHT22;49473;50.772;8.768;2023-03-01T10:55:57;16.90;58.50
2387;DHT22;49473;50.772;8.768;2023-03-01T10:58:24;14.80;57.80
2387;DHT22;49473;50.772;8.768;2023-03-01T11:00:52;14.40;59.90
2387;DHT22;49473;50.772;8.768;2023-03-01T11:03:23;14.90;62.60
2387;DHT22;49473;50.772;8.768;2023-03-01T11:06:05;15.50;60.70
2387;DHT22;49473;50.772;8.768;2023-03-01T11:08:38;16.50;59.10
2387;DHT22;49473;50.772;8.768;2023-03-01T11:11:21;16.00;57.60
2387;DHT22;49473;50.772;8.768;2023-03-01T11:13:52;15.00;57.20
2387;DHT22;49473;50.772;8.768;2023-03-01T11:16:24;15.30;59.60
2387;DHT22;49473;50.772;8.768;2023-03-01T11:19:19;16.10;59.30
2387;DHT22;49473;50.772;8.768;2023-03-01T11:21:55;16.90;56.80
2387;DHT22;49473;50.772;8.768;2023-03-01T11:24:28;17.90;58.50
2387;DHT22;49473;50.772;8.768;2023-03-01T11:27:03;18.20;55.60
2387;DHT22;49473;50.772;8.768;2023-03-01T11:29:38;18.60;54.40
2387;DHT22;49473;50.772;8.768;2023-03-01T11:32:09;17.60;52.10
2387;DHT22;49473;50.772;8.768;2023-03-01T11:34:42;16.70;52.80
2387;DHT22;49473;50.772;8.768;2023-03-01T11:37:16;15.80;53.70
2387;DHT22;49473;50.772;8.768;2023-03-01T11:39:55;15.60;55.20
2387;DHT22;49473;50.772;8.768;2023-03-01T11:42:35;17.50;57.20
2387;DHT22;49473;50.772;8.768;2023-03-01T11:45:10;18.60;54.50
2387;DHT22;49473;50.772;8.768;2023-03-01T11:47:55;17.80;53.10
2387;DHT22;49473;50.772;8.768;2023-03-01T11:50:29;18.40;53.90
2387;DHT22;49473;50.772;8.768;2023-03-01T11:53:05;18.50;53.30
2387;DHT22;49473;50.772;8.768;2023-03-01T11:55:50;17.10;51.90
2387;DHT22;49473;50.772;8.768;2023-03-01T11:58:34;17.40;54.20
2387;DHT22;49473;50.772;8.768;2023-03-01T12:01:16;18.70;54.30
2387;DHT22;49473;50.772;8.768;2023-03-01T12:04:08;19.10;53.30
2387;DHT22;49473;50.772;8.768;2023-03-01T12:06:46;19.10;51.40
2387;DHT22;49473;50.772;8.768;2023-03-01T12:09:31;19.00;51.70
2387;DHT22;49473;50.772;8.768;2023-03-01T12:12:25;19.10;51.80
2387;DHT22;49473;50.772;8.768;2023-03-01T12:15:06;16.50;51.40
2387;DHT22;49473;50.772;8.768;2023-03-01T12:17:54;17.40;53.80
2387;DHT22;49473;50.772;8.768;2023-03-01T12:20:29;18.80;52.50
2387;DHT22;49473;50.772;8.768;2023-03-01T12:26:10;18.00;51.10
2387;DHT22;49473;50.772;8.768;2023-03-01T12:31:53;19.10;50.50
2387;DHT22;49473;50.772;8.768;2023-03-01T12:34:43;19.40;50.80
2387;DHT22;49473;50.772;8.768;2023-03-01T12:37:22;19.60;49.80
2387;DHT22;49473;50.772;8.768;2023-03-01T12:40:01;19.50;48.80
2387;DHT22;49473;50.772;8.768;2023-03-01T12:42:37;19.40;49.50
2387;DHT22;49473;50.772;8.768;2023-03-01T12:45:26;19.10;48.10
2387;DHT22;49473;50.772;8.768;2023-03-01T12:48:08;17.70;48.10
2387;DHT22;49473;50.772;8.768;2023-03-01T12:50:42;17.60;49.80
2387;DHT22;49473;50.772;8.768;2023-03-01T12:53:21;18.70;50.30
2387;DHT22;49473;50.772;8.768;2023-03-01T12:55:49;18.90;50.20
2387;DHT22;49473;50.772;8.768;2023-03-01T12:58:23;19.70;47.70
2387;DHT22;49473;50.772;8.768;2023-03-01T13:01:03;19.70;48.80
2387;DHT22;49473;50.772;8.768;2023-03-01T13:03:45;18.60;45.90
2387;DHT22;49473;50.772;8.768;2023-03-01T13:06:20;16.40;48.40
2387;DHT22;49473;50.772;8.768;2023-03-01T13:08:54;17.60;48.60
2387;DHT22;49473;50.772;8.768;2023-03-01T13:11:26;17.70;48.50
2387;DHT22;49473;50.772;8.768;2023-03-01T13:16:58;17.10;48.30
2387;DHT22;49473;50.772;8.768;2023-03-01T13:19:27;18.10;49.00
2387;DHT22;49473;50.772;8.768;2023-03-01T13:21:55;18.60;48.00
2387;DHT22;49473;50.772;8.768;2023-03-01T13:24:25;17.30;46.70
2387;DHT22;49473;50.772;8.768;2023-03-01T13:27:10;16.70;49.10
2387;DHT22;49473;50.772;8.768;2023-03-01T13:29:45;15.20;49.50
2387;DHT22;49473;50.772;8.768;2023-03-01T13:32:22;13.30;51.80
2387;DHT22;49473;50.772;8.768;2023-03-01T13:34:56;11.90;54.40
2387;DHT22;49473;50.772;8.768;2023-03-01T13:37:31;10.60;54.40
2387;DHT22;49473;50.772;8.768;2023-03-01T13:40:04;10.10;55.90
2387;DHT22;49473;50.772;8.768;2023-03-01T13:42:34;9.40;57.20
2387;DHT22;49473;50.772;8.768;2023-03-01T13:45:04;8.80;58.90
2387;DHT22;49473;50.772;8.768;2023-03-01T13:47:38;8.30;59.20
2387;DHT22;49473;50.772;8.768;2023-03-01T13:50:15;7.90;61.10
2387;DHT22;49473;50.772;8.768;2023-03-01T13:52:44;7.80;62.80
2387;DHT22;49473;50.772;8.768;2023-03-01T13:55:18;7.70;63.10
2387;DHT22;49473;50.772;8.768;2023-03-01T13:57:47;7.40;63.00
2387;DHT22;49473;50.772;8.768;2023-03-01T14:00:31;7.40;63.80
2387;DHT22;49473;50.772;8.768;2023-03-01T14:13:34;7.10;96.80
2387;DHT22;49473;50.772;8.768;2023-03-01T14:16:16;7.10;95.40
2387;DHT22;49473;50.772;8.768;2023-03-01T14:21:18;7.10;96.30
2387;DHT22;49473;50.772;8.768;2023-03-01T14:53:51;6.60;99.70
2387;DHT22;49473;50.772;8.768;2023-03-01T14:56:18;6.70;99.90
2387;DHT22;49473;50.772;8.768;2023-03-01T15:01:14;6.60;84.60
2387;DHT22;49473;50.772;8.768;2023-03-01T15:03:44;6.50;83.00
2387;DHT22;49473;50.772;8.768;2023-03-01T15:06:14;6.60;80.90
2387;DHT22;49473;50.772;8.768;2023-03-01T15:08:44;6.50;81.60
2387;DHT22;49473;50.772;8.768;2023-03-01T15:11:20;6.40;82.10
2387;DHT22;49473;50.772;8.768;2023-03-01T15:13:49;6.40;73.30
2387;DHT22;49473;50.772;8.768;2023-03-01T15:16:20;6.40;76.40
2387;DHT22;49473;50.772;8.768;2023-03-01T15:18:50;6.60;83.20
2387;DHT22;49473;50.772;8.768;2023-03-01T15:21:19;6.60;82.00
2387;DHT22;49473;50.772;8.768;2023-03-01T15:23:49;6.50;81.70
2387;DHT22;49473;50.772;8.768;2023-03-01T15:26:27;6.60;80.40
2387;DHT22;49473;50.772;8.768;2023-03-01T15:28:57;6.60;79.90
2387;DHT22;49473;50.772;8.768;2023-03-01T15:31:25;6.60;79.70
2387;DHT22;49473;50.772;8.768;2023-03-01T15:33:58;6.60;80.20
2387;DHT22;49473;50.772;8.768;2023-03-01T15:36:38;6.50;79.90
2387;DHT22;49473;50.772;8.768;2023-03-01T15:39:26;6.40;77.60
2387;DHT22;49473;50.772;8.768;2023-03-01T15:41:56;6.50;78.80
2387;DHT22;49473;50.772;8.768;2023-03-01T15:44:28;6.30;78.40
2387;DHT22;49473;50.772;8.768;2023-03-01T15:46:55;6.30;78.90
2387;DHT22;49473;50.772;8.768;2023-03-01T15:49:31;6.30;75.40
2387;DHT22;49473;50.772;8.768;2023-03-01T15:51:59;6.60;75.90
2387;DHT22;49473;50.772;8.768;2023-03-01T15:54:27;7.10;75.20
2387;DHT22;49473;50.772;8.768;2023-03-01T15:56:55;7.90;74.40
2387;DHT22;49473;50.772;8.768;2023-03-01T15:59:23;8.40;73.30
2387;DHT22;49473;50.772;8.768;2023-03-01T16:01:50;8.60;73.40
2387;DHT22;49473;50.772;8.768;2023-03-01T16:04:18;8.70;73.30
2387;DHT22;49473;50.772;8.768;2023-03-01T16:06:48;8.40;71.20
2387;DHT22;49473;50.772;8.768;2023-03-01T16:09:20;7.90;72.20
2387;DHT22;49473;50.772;8.768;2023-03-01T16:11:47;8.00;73.30
2387;DHT22;49473;50.772;8.768;2023-03-01T16:14:15;8.00;73.30
2387;DHT22;49473;50.772;8.768;2023-03-01T16:16:42;7.90;72.50
2387;DHT22;49473;50.772;8.768;2023-03-01T16:19:09;7.80;73.10
2387;DHT22;49473;50.772;8.768;2023-03-01T16:21:36;7.40;74.10
2387;DHT22;49473;50.772;8.768;2023-03-01T16:24:05;7.20;74.50
2387;DHT22;49473;50.772;8.768;2023-03-01T16:26:32;6.90;74.40
2387;DHT22;49473;50.772;8.768;2023-03-01T16:32:10;6.70;77.30
2387;DHT22;49473;50.772;8.768;2023-03-01T16:34:37;6.50;77.80
2387;DHT22;49473;50.772;8.768;2023-03-01T16:37:03;6.40;77.70
2387;DHT22;49473;50.772;8.768;2023-03-01T16:39:30;6.20;77.80
2387;DHT22;49473;50.772;8.768;2023-03-01T16:42:00;6.00;77.50
2387;DHT22;49473;50.772;8.768;2023-03-01T16:44:26;5.90;78.70
2387;DHT22;49473;50.772;8.768;2023-03-01T16:46:53;5.70;80.00
2387;DHT22;49473;50.772;8.768;2023-03-01T16:49:21;5.60;79.80
2387;DHT22;49473;50.772;8.768;2023-03-01T16:51:48;5.50;77.90
2387;DHT22;49473;50.772;8.768;2023-03-01T16:54:14;5.50;79.90
2387;DHT22;49473;50.772;8.768;2023-03-01T16:56:41;5.40;79.60
2387;DHT22;49473;50.772;8.768;2023-03-01T16:59:09;5.30;79.30
2387;DHT22;49473;50.772;8.768;2023-03-01T17:01:35;5.30;80.30
2387;DHT22;49473;50.772;8.768;2023-03-01T17:04:08;5.20;79.50
2387;DHT22;49473;50.772;8.768;2023-03-01T17:06:37;5.20;80.40